Time;durP1;ratioP1;P1;durP2;ratioP2;P2;SDS_P1;SDS_P2;PMS_P1;PMS_P2;Temp;Humidity;BMP_temperature;BMP_pressure;BME280_temperature;BME280_humidity;BME280_pressure;Samples;Min_cycle;Max_cycle;Signal;HPM_P1;HPM_P2
2021/12/21 00:01:59;;;;;;;31.50;6.50;;;;;;;-1.80;91.55;100078.12;103714;1302;22457;-28
2021/12/21 00:04:25;;;;;;;64.70;8.60;;;;;;;-1.70;91.92;100077.63;103838;1314;24314;-28
2021/12/21 00:06:50;;;;;;;20.40;6.80;;;;;;;-1.66;92.21;100077.50;103915;1314;22905;-27
2021/12/21 00:09:16;;;;;;;33.70;8.20;;;;;;;-1.65;92.07;100081.84;103824;1310;22710;-31
2021/12/21 00:11:42;;;;;;;42.00;9.10;;;;;;;-1.61;92.14;100082.46;103806;1304;24248;-27
2021/12/21 00:19:23;;;;;;;14.20;5.10;;;;;;;-1.57;93.28;100077.28;103775;1313;22568;-27
2021/12/21 00:21:56;;;;;;;43.90;8.90;;;;;;;-1.52;93.04;100076.55;103803;1307;24225;-30
2021/12/21 00:24:29;;;;;;;8.60;3.10;;;;;;;-1.39;92.67;100075.67;103885;1302;22747;-27
2021/12/21 00:26:55;;;;;;;17.60;8.60;;;;;;;-1.37;92.13;100075.91;103787;1314;24151;-31
2021/12/21 00:29:21;;;;;;;28.10;8.10;;;;;;;-1.54;91.71;100080.37;103826;1313;25049;-30
2021/12/21 00:31:47;;;;;;;73.30;7.00;;;;;;;-1.55;92.72;100080.60;103871;1314;24358;-27
2021/12/21 00:34:14;;;;;;;85.00;8.90;;;;;;;-1.55;92.59;100079.04;103887;1315;24158;-31
2021/12/21 00:36:39;;;;;;;42.50;9.30;;;;;;;-1.55;92.84;100078.39;103799;1314;23913;-27
2021/12/21 00:39:06;;;;;;;22.90;7.90;;;;;;;-1.60;92.67;100080.48;103819;1307;24239;-27
2021/12/21 00:41:33;;;;;;;137.90;11.70;;;;;;;-1.60;92.98;100080.32;103856;1314;24233;-27
2021/12/21 00:43:59;;;;;;;40.50;6.60;;;;;;;-1.58;93.69;100077.35;103876;1310;24330;-31
2021/12/21 00:46:25;;;;;;;47.00;10.40;;;;;;;-1.64;93.83;100078.75;103750;1310;24133;-28
2021/12/21 00:48:54;;;;;;;66.70;11.70;;;;;;;-1.61;94.14;100077.52;103756;1314;25271;-30
2021/12/21 00:51:22;;;;;;;44.90;9.30;;;;;;;-1.59;94.15;100080.89;103560;1311;24128;-27
2021/12/21 00:53:48;;;;;;;21.40;7.70;;;;;;;-1.66;93.57;100081.54;103639;1314;24110;-31
2021/12/21 00:56:14;;;;;;;11.70;5.20;;;;;;;-1.69;93.56;100081.91;103794;1314;24238;-27
2021/12/21 00:58:40;;;;;;;20.10;7.70;;;;;;;-1.70;93.49;100085.64;103923;1310;22488;-27
2021/12/21 01:01:07;;;;;;;19.10;5.70;;;;;;;-1.69;93.98;100083.30;103673;1314;22719;-30
2021/12/21 01:03:34;;;;;;;18.00;7.30;;;;;;;-1.68;93.79;100087.30;104003;1310;24333;-27
2021/12/21 01:08:41;;;;;;;20.20;6.70;;;;;;;-1.70;93.06;100083.54;103852;1308;22463;-26
2021/12/21 01:11:15;;;;;;;12.10;5.30;;;;;;;-1.63;93.69;100083.96;103794;1314;24252;-30
2021/12/21 01:13:52;;;;;;;5.00;2.80;;;;;;;-1.64;93.18;100080.73;103811;1313;24288;-31
2021/12/21 01:16:26;;;;;;;13.10;4.10;;;;;;;-1.60;93.13;100083.94;103882;1314;24102;-30
2021/12/21 01:19:04;;;;;;;13.80;5.90;;;;;;;-1.61;92.70;100089.42;103724;1307;22438;-30
2021/12/21 01:21:35;;;;;;;20.80;5.70;;;;;;;-1.64;92.75;100088.44;103810;1313;22449;-30
2021/12/21 01:31:37;;;;;;;18.70;6.70;;;;;;;-1.57;93.08;100090.10;103767;1310;24133;-27
2021/12/21 01:39:14;;;;;;;15.20;6.90;;;;;;;-1.68;92.81;100087.65;103752;1314;22456;-27
2021/12/21 01:41:51;;;;;;;15.00;6.20;;;;;;;-1.70;92.65;100090.59;103821;1314;24173;-31
2021/12/21 01:51:41;;;;;;;5.00;2.90;;;;;;;-1.58;93.00;100086.80;103871;1305;22465;-26
2021/12/21 01:54:08;;;;;;;13.20;4.40;;;;;;;-1.61;92.87;100085.23;103869;1314;22902;-31
2021/12/21 01:56:35;;;;;;;11.30;5.40;;;;;;;-1.60;93.15;100090.60;103881;1314;24101;-27
2021/12/21 01:59:01;;;;;;;16.50;6.30;;;;;;;-1.62;93.36;100089.53;103853;1314;24158;-27
2021/12/21 02:01:27;;;;;;;12.90;4.80;;;;;;;-1.59;93.30;100084.76;103754;1314;22454;-30
2021/12/21 02:03:53;;;;;;;15.20;6.60;;;;;;;-1.59;93.42;100081.41;103893;1314;24193;-27
2021/12/21 02:06:21;;;;;;;18.80;6.00;;;;;;;-1.53;93.54;100081.71;103722;1310;24143;-27
2021/12/21 02:08:48;;;;;;;10.90;4.50;;;;;;;-1.60;92.56;100083.58;103865;1313;22437;-27
2021/12/21 02:11:14;;;;;;;25.60;4.70;;;;;;;-1.63;92.40;100084.34;103804;1312;24144;-30
2021/12/21 02:13:44;;;;;;;12.80;5.40;;;;;;;-1.65;92.16;100086.02;103801;1314;24259;-30
2021/12/21 02:16:10;;;;;;;8.60;4.80;;;;;;;-1.64;92.72;100086.17;103626;1310;22777;-27
2021/12/21 02:18:47;;;;;;;21.20;5.60;;;;;;;-1.66;92.36;100087.87;103603;1313;24956;-27
2021/12/21 02:23:43;;;;;;;13.00;5.00;;;;;;;-1.67;92.13;100093.73;103875;1315;24170;-30
2021/12/21 02:28:48;;;;;;;17.50;4.70;;;;;;;-1.71;91.34;100089.45;103886;1314;24227;-28
2021/12/21 02:31:16;;;;;;;28.50;3.80;;;;;;;-1.72;91.23;100090.02;103843;1314;22795;-27
2021/12/21 02:33:44;;;;;;;4.70;2.20;;;;;;;-1.78;90.28;100084.26;103711;1315;24147;-27
2021/12/21 02:36:10;;;;;;;9.30;3.40;;;;;;;-1.69;90.12;100087.91;103794;1311;22458;-27
2021/12/21 02:38:36;;;;;;;15.30;5.50;;;;;;;-1.74;90.19;100084.02;103809;1304;24253;-27
2021/12/21 02:41:02;;;;;;;11.20;3.80;;;;;;;-1.81;90.17;100088.18;103819;1313;24186;-26
2021/12/21 02:43:28;;;;;;;6.80;3.60;;;;;;;-1.83;90.64;100083.39;103568;1314;22546;-31
2021/12/21 02:45:54;;;;;;;10.40;4.70;;;;;;;-1.82;90.76;100080.52;103808;1314;22500;-27
2021/12/21 02:48:20;;;;;;;20.80;5.90;;;;;;;-1.88;91.15;100082.61;103627;1313;22731;-27
2021/12/21 02:50:46;;;;;;;11.10;5.00;;;;;;;-1.85;91.23;100083.51;103886;1308;22686;-27
2021/12/21 02:53:12;;;;;;;8.10;3.30;;;;;;;-1.86;90.89;100079.55;103866;1312;22471;-30
2021/12/21 02:55:38;;;;;;;8.60;3.30;;;;;;;-1.87;90.87;100080.66;103813;1307;24109;-27
2021/12/21 02:58:05;;;;;;;8.60;3.50;;;;;;;-1.79;90.97;100080.48;103841;1314;24322;-27
2021/12/21 03:00:32;;;;;;;6.80;2.70;;;;;;;-1.70;89.87;100079.48;103712;1302;22792;-27
2021/12/21 03:03:02;;;;;;;8.30;3.90;;;;;;;-1.74;90.46;100082.06;103848;1314;22459;-30
2021/12/21 03:05:28;;;;;;;5.90;2.00;;;;;;;-1.78;90.14;100078.50;103832;1314;24400;-27
2021/12/21 03:08:17;;;;;;;6.10;2.90;;;;;;;-1.84;90.12;100078.88;103892;1314;22464;-27
2021/12/21 03:10:48;;;;;;;8.80;3.30;;;;;;;-1.91;90.04;100077.23;103747;1315;24151;-27
2021/12/21 03:15:43;;;;;;;7.80;3.40;;;;;;;-1.85;90.37;100076.30;103625;1314;24125;-27
2021/12/21 03:18:09;;;;;;;16.30;2.40;;;;;;;-1.89;89.98;100080.25;103801;1313;22470;-27
2021/12/21 03:20:35;;;;;;;12.60;2.80;;;;;;;-1.95;90.07;100082.94;103820;1314;24243;-30
2021/12/21 03:23:01;;;;;;;14.00;3.80;;;;;;;-1.97;90.58;100081.66;103810;1307;22478;-30
2021/12/21 03:25:27;;;;;;;12.50;4.00;;;;;;;-1.93;91.05;100081.73;103830;1312;24275;-27
2021/12/21 03:27:53;;;;;;;8.90;3.90;;;;;;;-1.88;90.90;100073.70;103620;1310;24217;-27
2021/12/21 03:30:19;;;;;;;10.80;3.80;;;;;;;-1.95;90.63;100071.34;103920;1314;24246;-27
2021/12/21 03:32:44;;;;;;;10.60;3.90;;;;;;;-2.03;91.29;100079.73;103842;1314;24132;-30
2021/12/21 03:35:11;;;;;;;9.80;4.80;;;;;;;-2.00;91.86;100083.09;103599;1314;22463;-27
2021/12/21 03:37:37;;;;;;;8.30;3.60;;;;;;;-2.05;91.92;100083.05;103891;1313;22546;-30
2021/12/21 03:40:04;;;;;;;10.10;5.10;;;;;;;-2.10;92.01;100083.35;103789;1314;24263;-27
2021/12/21 03:42:30;;;;;;;9.20;4.40;;;;;;;-2.12;92.35;100079.82;103774;1311;24255;-30
2021/12/21 03:44:56;;;;;;;9.20;3.70;;;;;;;-2.12;92.80;100081.77;103794;1314;22723;-27
2021/12/21 03:47:23;;;;;;;8.90;3.80;;;;;;;-2.11;93.15;100076.92;103851;1308;24368;-30
2021/12/21 03:49:55;;;;;;;14.70;6.30;;;;;;;-2.14;93.15;100082.60;103706;1307;22466;-27
2021/12/21 03:52:22;;;;;;;16.60;4.70;;;;;;;-2.14;93.55;100085.94;103782;1311;23817;-30
2021/12/21 03:54:51;;;;;;;11.70;5.70;;;;;;;-2.16;93.83;100088.45;103625;1313;22471;-31
2021/12/21 03:57:17;;;;;;;12.50;2.60;;;;;;;-2.08;93.64;100092.73;103837;1314;24145;-30
2021/12/21 03:59:44;;;;;;;14.30;4.20;;;;;;;-2.08;93.12;100095.33;103397;1314;557885;-27
2021/12/21 04:02:11;;;;;;;10.30;3.30;;;;;;;-2.05;93.14;100093.58;103877;1313;24141;-27
2021/12/21 04:04:39;;;;;;;8.00;3.80;;;;;;;-2.08;93.09;100098.84;103861;1314;24211;-31
2021/12/21 04:07:05;;;;;;;7.00;3.60;;;;;;;-2.02;92.73;100099.36;103573;1312;24168;-30
2021/12/21 04:09:31;;;;;;;7.60;2.70;;;;;;;-1.99;92.85;100101.95;103827;1314;22461;-27
2021/12/21 04:11:57;;;;;;;10.10;3.90;;;;;;;-2.03;91.92;100103.63;103779;1314;22533;-30
2021/12/21 04:14:23;;;;;;;11.20;3.30;;;;;;;-2.00;92.09;100105.34;103784;1305;24328;-30
2021/12/21 04:16:50;;;;;;;5.90;1.80;;;;;;;-2.01;92.27;100106.79;103884;1314;24188;-27
2021/12/21 04:19:18;;;;;;;9.20;5.10;;;;;;;-1.94;92.06;100107.63;103725;1314;22722;-27
2021/12/21 04:21:44;;;;;;;12.60;3.50;;;;;;;-2.03;92.27;100105.54;103873;1315;24159;-27
2021/12/21 04:24:10;;;;;;;6.20;2.30;;;;;;;-1.97;92.57;100105.86;103692;1314;24133;-27
2021/12/21 04:26:36;;;;;;;4.10;1.60;;;;;;;-1.93;92.42;100107.69;103741;1314;24218;-27
2021/12/21 04:29:02;;;;;;;10.20;3.50;;;;;;;-2.02;92.50;100104.79;103781;1310;24135;-30
2021/12/21 04:31:28;;;;;;;4.20;2.00;;;;;;;-1.99;92.55;100102.30;103816;1313;24216;-30
2021/12/21 04:33:54;;;;;;;14.00;2.30;;;;;;;-1.98;92.41;100107.54;103671;1308;24309;-27
2021/12/21 04:36:20;;;;;;;13.80;3.20;;;;;;;-2.03;92.11;100107.85;103911;1305;24240;-27
2021/12/21 04:38:49;;;;;;;10.10;2.30;;;;;;;-1.95;92.48;100109.61;103633;1314;22442;-30
2021/12/21 04:41:21;;;;;;;9.40;3.20;;;;;;;-1.96;92.04;100114.73;103777;1314;24267;-27
2021/12/21 04:43:47;;;;;;;13.20;2.90;;;;;;;-2.02;92.73;100107.80;103793;1315;22470;-27
2021/12/21 04:46:13;;;;;;;7.50;2.90;;;;;;;-2.03;92.74;100112.23;103570;1310;24380;-30
2021/12/21 04:48:39;;;;;;;8.50;3.20;;;;;;;-2.03;92.68;100108.52;103823;1305;24235;-30
2021/12/21 04:51:05;;;;;;;10.50;3.90;;;;;;;-1.98;93.00;100110.64;103832;1312;24158;-27
2021/12/21 04:53:31;;;;;;;3.90;2.40;;;;;;;-1.97;93.22;100114.63;103819;1315;22474;-27
2021/12/21 04:55:57;;;;;;;3.40;1.90;;;;;;;-1.98;93.08;100114.69;103713;1314;22510;-31
2021/12/21 04:58:23;;;;;;;7.40;3.30;;;;;;;-1.97;92.81;100118.68;103840;1314;24177;-28
2021/12/21 05:00:50;;;;;;;6.20;2.40;;;;;;;-2.06;92.38;100119.46;103701;1313;24378;-27
2021/12/21 05:03:16;;;;;;;7.20;3.10;;;;;;;-2.01;92.47;100122.06;103856;1314;24150;-31
2021/12/21 05:05:42;;;;;;;10.00;3.60;;;;;;;-2.01;92.56;100125.45;103831;1310;24108;-30
2021/12/21 05:08:10;;;;;;;15.20;2.90;;;;;;;-1.99;93.05;100127.40;103604;1316;24162;-31
2021/12/21 05:10:45;;;;;;;4.90;2.60;;;;;;;-2.03;92.98;100128.54;103827;1314;24107;-27
2021/12/21 05:13:12;;;;;;;6.20;2.30;;;;;;;-2.03;93.74;100129.56;103813;1315;24248;-27
2021/12/21 05:15:38;;;;;;;14.70;2.80;;;;;;;-2.04;93.70;100128.46;103748;1314;22451;-31
2021/12/21 05:18:05;;;;;;;7.10;2.80;;;;;;;-2.03;93.97;100130.14;103761;1315;23247;-27
2021/12/21 05:20:31;;;;;;;13.00;2.40;;;;;;;-2.01;94.40;100132.30;103822;1314;24121;-30
2021/12/21 05:22:56;;;;;;;9.90;2.70;;;;;;;-2.07;94.40;100132.83;103760;1315;24189;-29
2021/12/21 05:25:22;;;;;;;3.10;2.40;;;;;;;-2.04;94.52;100135.61;103647;1313;24254;-27
2021/12/21 05:27:49;;;;;;;6.50;2.50;;;;;;;-2.04;94.55;100130.01;103811;1313;24133;-27
2021/12/21 05:30:15;;;;;;;5.30;2.80;;;;;;;-1.98;95.06;100129.80;103778;1314;24182;-27
2021/12/21 05:32:41;;;;;;;5.20;2.30;;;;;;;-2.00;94.87;100130.27;103757;1315;24176;-27
2021/12/21 05:35:08;;;;;;;22.80;4.80;;;;;;;-1.95;95.09;100129.42;103883;1314;24132;-27
2021/12/21 05:37:37;;;;;;;17.30;3.30;;;;;;;-1.94;94.52;100137.08;103826;1316;24153;-31
2021/12/21 05:42:32;;;;;;;5.60;3.20;;;;;;;-1.86;94.34;100133.05;103798;1307;24132;-30
2021/12/21 05:44:58;;;;;;;9.50;3.30;;;;;;;-1.85;94.48;100135.95;103756;1314;24218;-27
2021/12/21 05:47:24;;;;;;;3.50;1.30;;;;;;;-1.90;93.62;100134.52;103819;1314;22472;-30
2021/12/21 05:49:49;;;;;;;7.40;2.90;;;;;;;-1.84;93.45;100132.77;103796;1315;24232;-30
2021/12/21 05:52:15;;;;;;;4.80;2.60;;;;;;;-1.90;93.44;100138.94;103844;1314;22437;-27
2021/12/21 05:54:41;;;;;;;2.60;2.00;;;;;;;-1.92;92.86;100141.54;103860;1314;23890;-30
2021/12/21 05:57:07;;;;;;;11.20;2.40;;;;;;;-1.86;92.14;100144.84;103782;1314;24307;-27
2021/12/21 05:59:33;;;;;;;5.10;3.20;;;;;;;-1.91;92.53;100143.40;103728;1314;24150;-30
2021/12/21 06:01:59;;;;;;;4.80;3.30;;;;;;;-1.91;92.49;100134.98;103826;1314;24354;-27
2021/12/21 06:04:25;;;;;;;7.40;2.00;;;;;;;-1.93;92.12;100137.38;103835;1314;24256;-27
2021/12/21 06:06:51;;;;;;;6.10;3.50;;;;;;;-1.92;92.00;100144.46;103839;1314;22457;-30
2021/12/21 06:09:17;;;;;;;12.00;3.40;;;;;;;-1.87;92.36;100146.50;103537;1314;24191;-27
2021/12/21 06:12:02;;;;;;;6.50;3.90;;;;;;;-1.98;91.58;100148.91;103916;1314;22461;-30
2021/12/21 06:26:55;;;;;;;6.60;2.90;;;;;;;-2.33;91.57;100153.78;103660;1316;24146;-31
2021/12/21 06:29:21;;;;;;;6.70;3.30;;;;;;;-2.32;91.75;100156.70;103866;1315;24238;-26
2021/12/21 06:31:48;;;;;;;5.40;3.30;;;;;;;-2.41;91.02;100158.30;103795;1316;22462;-30
2021/12/21 06:34:14;;;;;;;5.30;3.10;;;;;;;-2.43;91.57;100157.87;103839;1305;22742;-26
2021/12/21 06:36:40;;;;;;;5.70;2.90;;;;;;;-2.46;91.48;100160.01;103817;1313;24261;-26
2021/12/21 06:39:06;;;;;;;5.70;2.20;;;;;;;-2.46;91.70;100163.15;103927;1312;24307;-30
2021/12/21 06:41:34;;;;;;;5.10;2.10;;;;;;;-2.61;90.26;100164.64;103898;1316;24121;-30
2021/12/21 06:44:02;;;;;;;6.20;2.60;;;;;;;-2.54;91.19;100163.50;103682;1316;22676;-26
2021/12/21 06:53:57;;;;;;;3.50;1.50;;;;;;;-2.46;91.12;100169.65;103874;1315;22469;-30
2021/12/21 06:56:24;;;;;;;6.50;3.20;;;;;;;-2.45;91.47;100167.66;103811;1313;22458;-30
2021/12/21 06:58:54;;;;;;;2.60;1.50;;;;;;;-2.45;91.53;100173.43;103770;1313;22925;-30
2021/12/21 07:01:20;;;;;;;14.10;3.30;;;;;;;-2.55;90.70;100177.80;103818;1313;22839;-26
2021/12/21 07:03:46;;;;;;;3.50;1.80;;;;;;;-2.55;91.24;100179.02;103953;1315;22724;-27
2021/12/21 07:06:13;;;;;;;8.50;3.30;;;;;;;-2.55;90.93;100178.80;103829;1312;24191;-30
2021/12/21 07:18:33;;;;;;;6.60;3.70;;;;;;;-2.93;89.90;100193.69;103895;1314;24265;-30
2021/12/21 07:21:00;;;;;;;4.10;2.40;;;;;;;-2.85;90.84;100196.91;103779;1313;24162;-26
2021/12/21 07:23:26;;;;;;;3.90;2.50;;;;;;;-2.87;91.27;100197.55;103793;1314;24283;-30
2021/12/21 07:25:53;;;;;;;6.90;4.00;;;;;;;-2.93;90.90;100206.34;103845;1316;22476;-26
2021/12/21 07:28:19;;;;;;;4.00;3.10;;;;;;;-2.96;91.19;100207.36;103885;1314;24343;-26
2021/12/21 07:30:47;;;;;;;18.70;5.00;;;;;;;-3.03;90.70;100209.08;103701;1308;24212;-28
2021/12/21 07:33:14;;;;;;;8.60;3.90;;;;;;;-3.05;90.73;100211.77;103815;1301;24345;-30
2021/12/21 07:35:40;;;;;;;6.90;3.70;;;;;;;-3.04;90.96;100216.44;103673;1314;22827;-30
2021/12/21 07:38:06;;;;;;;5.80;3.80;;;;;;;-3.15;90.51;100218.11;103858;1315;24272;-30
2021/12/21 07:40:32;;;;;;;7.70;4.10;;;;;;;-3.14;90.85;100218.25;103988;1314;22720;-31
2021/12/21 07:43:00;;;;;;;7.10;4.50;;;;;;;-3.08;91.87;100220.17;103975;1314;24258;-27
2021/12/21 07:45:26;;;;;;;7.50;3.50;;;;;;;-3.07;91.50;100228.34;104014;1314;22438;-31
2021/12/21 07:47:52;;;;;;;12.60;5.50;;;;;;;-2.92;92.01;100228.02;103857;1312;23911;-27
2021/12/21 07:50:19;;;;;;;6.90;3.80;;;;;;;-2.70;91.92;100233.52;103755;1314;24264;-30
2021/12/21 07:52:50;;;;;;;10.00;3.40;;;;;;;-2.60;91.53;100235.05;103911;1308;22475;-29
2021/12/21 07:55:16;;;;;;;5.70;3.60;;;;;;;-2.53;90.91;100234.63;103808;1314;24052;-26
2021/12/21 07:57:42;;;;;;;13.10;4.20;;;;;;;-2.44;91.05;100229.87;103923;1310;24152;-29
2021/12/21 08:00:09;;;;;;;5.40;2.90;;;;;;;-2.29;91.75;100227.73;104058;1313;22759;-27
2021/12/21 08:02:35;;;;;;;17.10;5.70;;;;;;;-2.25;89.57;100225.38;103868;1314;24142;-30
2021/12/21 08:05:05;;;;;;;7.90;4.70;;;;;;;-2.10;89.18;100231.45;103907;1315;24148;-27
2021/12/21 08:07:36;;;;;;;5.30;3.60;;;;;;;-2.00;88.48;100232.91;103807;1310;24256;-27
2021/12/21 08:10:17;;;;;;;8.60;4.00;;;;;;;-1.88;87.94;100237.23;103771;1310;24093;-30
2021/12/21 08:12:44;;;;;;;8.50;2.60;;;;;;;-1.80;85.37;100244.27;103936;1314;22758;-31
2021/12/21 08:15:10;;;;;;;7.10;3.50;;;;;;;-1.72;84.24;100245.59;103596;1314;22494;-26
2021/12/21 08:17:35;;;;;;;10.00;4.10;;;;;;;-1.40;86.92;100239.65;103904;1310;24373;-27
2021/12/21 08:20:01;;;;;;;8.20;3.30;;;;;;;-1.15;87.89;100233.80;103659;1314;24183;-30
2021/12/21 08:22:28;;;;;;;9.10;2.90;;;;;;;-1.27;83.82;100235.62;103915;1316;22836;-30
2021/12/21 08:24:53;;;;;;;16.60;6.00;;;;;;;-1.16;86.38;100232.06;104188;1313;22665;-27
2021/12/21 08:27:19;;;;;;;22.20;8.60;;;;;;;-1.14;83.92;100234.26;103993;1310;24133;-29
2021/12/21 08:29:46;;;;;;;10.20;3.60;;;;;;;-1.11;85.70;100238.44;103939;1314;24188;-27
2021/12/21 08:32:12;;;;;;;8.20;2.80;;;;;;;-0.93;88.89;100237.23;103964;1313;22822;-27
2021/12/21 08:34:38;;;;;;;6.60;4.00;;;;;;;-1.07;85.12;100240.12;103701;1307;22572;-30
2021/12/21 08:37:04;;;;;;;7.70;3.50;;;;;;;-1.24;83.36;100251.44;103925;1314;22463;-28
2021/12/21 08:39:38;;;;;;;9.20;3.40;;;;;;;-1.35;82.83;100253.70;104012;1314;22474;-27
2021/12/21 08:42:05;;;;;;;9.90;3.80;;;;;;;-1.42;83.45;100255.05;103736;1313;22595;-27
2021/12/21 08:44:32;;;;;;;7.90;2.50;;;;;;;-1.51;82.65;100256.11;103877;1313;22695;-31
2021/12/21 08:46:58;;;;;;;5.40;2.90;;;;;;;-1.54;81.92;100263.77;103599;1314;22459;-30
2021/12/21 08:49:25;;;;;;;6.10;2.90;;;;;;;-1.54;82.36;100261.60;103692;1314;24225;-30
2021/12/21 08:51:51;;;;;;;10.50;2.80;;;;;;;-1.51;82.82;100260.55;103798;1313;22456;-27
2021/12/21 08:54:17;;;;;;;7.30;4.00;;;;;;;-1.53;82.02;100260.84;103804;1316;22614;-31
2021/12/21 08:56:44;;;;;;;11.90;3.90;;;;;;;-1.29;85.11;100259.87;103700;1310;22727;-31
2021/12/21 08:59:10;;;;;;;16.70;5.40;;;;;;;-1.26;85.44;100261.59;103958;1314;22439;-27
2021/12/21 09:01:36;;;;;;;11.70;3.00;;;;;;;-1.20;84.02;100261.86;103992;1314;24180;-30
2021/12/21 09:04:03;;;;;;;11.80;3.40;;;;;;;-1.23;82.39;100266.45;103971;1314;22784;-27
2021/12/21 09:06:30;;;;;;;10.40;4.70;;;;;;;-1.21;82.66;100270.56;103764;1314;22734;-27
2021/12/21 09:08:56;;;;;;;4.90;2.80;;;;;;;-1.23;82.83;100269.27;103906;1305;24194;-29
2021/12/21 09:11:22;;;;;;;8.20;2.70;;;;;;;-1.13;81.90;100272.99;103897;1310;22464;-30
2021/12/21 09:13:48;;;;;;;4.40;1.90;;;;;;;-1.10;80.05;100273.20;104050;1314;23826;-30
2021/12/21 09:16:14;;;;;;;3.60;2.30;;;;;;;-0.98;81.24;100272.00;103825;1314;22620;-26
2021/12/21 09:18:40;;;;;;;10.10;2.40;;;;;;;-0.87;81.74;100266.75;103685;1309;24159;-30
2021/12/21 09:21:06;;;;;;;6.80;2.10;;;;;;;-0.85;80.72;100263.77;103848;1314;24185;-30
2021/12/21 09:23:32;;;;;;;6.20;1.80;;;;;;;-0.99;77.09;100269.24;103871;1313;24279;-30
2021/12/21 09:25:58;;;;;;;7.50;2.20;;;;;;;-0.99;77.57;100264.36;103764;1314;22455;-30
2021/12/21 09:28:24;;;;;;;5.90;2.20;;;;;;;-0.96;77.30;100264.17;103735;1314;22462;-29
2021/12/21 09:30:50;;;;;;;8.30;2.50;;;;;;;-0.83;77.96;100263.13;103943;1314;22782;-27
2021/12/21 09:33:16;;;;;;;4.80;1.60;;;;;;;-0.56;80.00;100257.77;103570;1302;22738;-30
2021/12/21 09:35:42;;;;;;;4.70;1.80;;;;;;;-0.53;76.35;100257.05;104056;1316;22464;-27
2021/12/21 09:38:08;;;;;;;3.90;1.80;;;;;;;-0.44;74.95;100256.98;104016;1310;22771;-31
2021/12/21 09:40:39;;;;;;;7.30;2.10;;;;;;;-0.36;75.30;100251.63;103952;1314;24240;-27
2021/12/21 09:43:07;;;;;;;4.20;2.20;;;;;;;-0.41;72.31;100253.02;103974;1314;22464;-30
2021/12/21 09:45:33;;;;;;;5.90;1.40;;;;;;;-0.48;72.72;100252.63;103810;1314;22580;-31
2021/12/21 09:47:59;;;;;;;3.10;1.20;;;;;;;-0.35;73.73;100247.59;103893;1314;24353;-31
2021/12/21 09:50:26;;;;;;;5.10;1.90;;;;;;;-0.02;79.33;100252.80;104100;1314;24170;-30
2021/12/21 09:52:52;;;;;;;8.60;4.20;;;;;;;0.11;76.11;100254.73;104160;1314;22595;-29
2021/12/21 09:55:19;;;;;;;10.40;2.10;;;;;;;0.44;76.88;100257.45;104003;1315;24403;-27
2021/12/21 09:57:45;;;;;;;2.60;0.80;;;;;;;0.41;77.74;100256.23;103977;1315;22462;-27
2021/12/21 10:00:14;;;;;;;5.70;1.40;;;;;;;0.23;72.34;100258.59;103851;1316;22960;-31
2021/12/21 10:02:40;;;;;;;4.80;1.90;;;;;;;0.40;72.20;100258.41;104090;1314;22801;-26
2021/12/21 10:05:09;;;;;;;7.10;2.00;;;;;;;0.59;69.22;100261.11;103775;1314;22544;-26
2021/12/21 10:07:35;;;;;;;11.20;2.00;;;;;;;1.23;75.35;100253.59;104104;1314;23879;-30
2021/12/21 10:10:06;;;;;;;9.30;3.50;;;;;;;1.98;79.09;100246.49;103727;1313;24134;-30
2021/12/21 10:12:34;;;;;;;8.60;2.50;;;;;;;2.11;73.51;100251.67;103793;1316;22499;-26
2021/12/21 10:15:03;;;;;;;6.00;2.90;;;;;;;1.91;71.62;100255.91;104027;1314;22808;-26
2021/12/21 10:17:32;;;;;;;6.90;1.70;;;;;;;1.87;74.45;100255.17;103722;1314;24207;-26
2021/12/21 10:20:00;;;;;;;4.00;1.70;;;;;;;1.48;66.38;100260.63;103856;1307;22464;-26
2021/12/21 10:22:26;;;;;;;5.50;1.70;;;;;;;1.05;65.61;100264.05;104000;1310;24134;-26
2021/12/21 10:24:52;;;;;;;3.10;1.60;;;;;;;1.06;70.24;100256.98;103663;1315;25313;-30
2021/12/21 10:27:20;;;;;;;6.90;2.50;;;;;;;1.09;74.28;100259.06;103877;1314;22465;-30
2021/12/21 10:29:47;;;;;;;11.30;4.20;;;;;;;1.25;73.56;100255.50;104002;1301;22795;-26
2021/12/21 10:32:18;;;;;;;12.00;1.30;;;;;;;1.17;68.13;100255.83;104118;1313;23381;-26
2021/12/21 10:34:51;;;;;;;4.70;1.50;;;;;;;1.21;71.61;100252.15;103785;1314;22495;-26
2021/12/21 10:37:23;;;;;;;3.80;1.40;;;;;;;0.75;65.00;100257.69;103947;1313;24286;-30
2021/12/21 10:39:49;;;;;;;2.70;1.20;;;;;;;0.44;66.51;100253.02;104052;1302;22739;-30
2021/12/21 10:42:16;;;;;;;9.60;2.90;;;;;;;0.86;73.35;100248.38;104060;1314;24187;-30
2021/12/21 10:44:45;;;;;;;4.10;1.40;;;;;;;1.60;72.11;100245.41;104009;1314;24252;-30
2021/12/21 10:47:11;;;;;;;1.80;0.90;;;;;;;2.27;72.26;100241.93;103767;1310;24132;-30
2021/12/21 10:49:39;;;;;;;3.50;1.20;;;;;;;2.64;73.45;100241.08;103853;1310;24222;-30
2021/12/21 10:52:07;;;;;;;2.40;1.50;;;;;;;2.88;70.03;100241.38;103824;1314;22477;-26
2021/12/21 10:54:34;;;;;;;5.30;1.90;;;;;;;3.38;69.42;100242.02;104060;1304;24158;-30
2021/12/21 10:57:04;;;;;;;3.20;1.80;;;;;;;3.86;70.87;100238.92;104029;1314;24143;-26
2021/12/21 10:59:31;;;;;;;6.20;2.20;;;;;;;4.10;71.58;100236.18;103998;1310;22586;-27
2021/12/21 11:02:04;;;;;;;5.80;2.20;;;;;;;4.23;73.48;100234.52;103979;1314;23840;-26
2021/12/21 11:04:35;;;;;;;2.70;1.80;;;;;;;4.47;70.47;100234.19;104045;1314;23788;-30
2021/12/21 11:07:08;;;;;;;7.30;2.00;;;;;;;4.15;67.04;100232.86;103833;1314;24132;-26
2021/12/21 11:09:34;;;;;;;16.20;5.50;;;;;;;4.05;62.60;100233.20;103935;1314;24208;-26
2021/12/21 11:12:01;;;;;;;6.70;2.10;;;;;;;3.70;58.78;100231.52;103740;1314;24289;-30
2021/12/21 11:14:27;;;;;;;3.80;1.50;;;;;;;3.09;58.81;100237.04;103765;1310;24158;-30
2021/12/21 11:19:29;;;;;;;20.50;4.20;;;;;;;2.39;59.69;100238.62;103966;1313;22464;-30
2021/12/21 11:21:56;;;;;;;9.50;1.40;;;;;;;1.96;61.16;100237.13;103867;1314;22742;-30
2021/12/21 11:24:22;;;;;;;6.70;2.30;;;;;;;2.01;60.40;100239.23;104042;1314;24751;-26
2021/12/21 11:26:48;;;;;;;27.10;6.80;;;;;;;1.42;62.24;100245.42;103929;1307;24236;-30
2021/12/21 11:29:16;;;;;;;8.60;1.70;;;;;;;0.98;62.46;100247.70;103636;1314;22760;-30
2021/12/21 11:31:44;;;;;;;9.60;2.80;;;;;;;0.45;63.68;100243.96;104078;1316;22493;-26
2021/12/21 11:34:15;;;;;;;4.60;2.30;;;;;;;-0.01;66.68;100243.59;103929;1314;22567;-30
2021/12/21 11:39:14;;;;;;;6.50;2.40;;;;;;;0.08;65.82;100240.13;103734;1314;22535;-26
2021/12/21 11:41:41;;;;;;;3.60;1.40;;;;;;;-0.29;66.97;100242.08;103907;1315;24282;-26
2021/12/21 11:44:11;;;;;;;13.60;1.60;;;;;;;-0.13;66.04;100240.20;103944;1314;22583;-30
2021/12/21 11:46:51;;;;;;;8.10;1.90;;;;;;;-0.32;67.04;100235.90;103967;1315;24151;-26
2021/12/21 11:49:22;;;;;;;8.50;2.20;;;;;;;-0.54;66.43;100237.05;103965;1313;23877;-26
2021/12/21 11:51:48;;;;;;;10.80;2.10;;;;;;;-0.64;66.60;100237.38;104012;1310;22449;-26
2021/12/21 11:54:17;;;;;;;20.20;6.20;;;;;;;-0.49;66.28;100228.97;104042;1310;24144;-26
2021/12/21 11:56:43;;;;;;;26.10;8.90;;;;;;;-0.55;66.69;100232.57;103929;1314;23503;-27
2021/12/21 11:59:09;;;;;;;29.50;6.50;;;;;;;-0.47;67.34;100230.27;103489;1314;519032;-31
2021/12/21 12:01:35;;;;;;;6.50;2.70;;;;;;;-0.54;66.98;100228.59;103722;1310;24162;-28
2021/12/21 12:04:06;;;;;;;11.80;3.10;;;;;;;-0.15;65.24;100229.75;103863;1314;22466;-27
2021/12/21 12:06:38;;;;;;;11.20;2.20;;;;;;;-0.30;65.41;100222.90;103805;1314;24273;-27
2021/12/21 12:09:04;;;;;;;14.90;4.60;;;;;;;-0.51;66.93;100225.38;104052;1314;25957;-30
2021/12/21 12:11:36;;;;;;;23.20;6.10;;;;;;;-0.49;65.83;100225.63;103826;1310;22450;-27
2021/12/21 12:14:03;;;;;;;11.20;3.40;;;;;;;-0.44;65.91;100225.48;103847;1313;24351;-30
2021/12/21 12:16:40;;;;;;;11.70;3.20;;;;;;;-0.51;66.53;100226.52;104083;1312;24267;-27
2021/12/21 12:19:12;;;;;;;7.70;2.40;;;;;;;-0.40;66.22;100225.22;104044;1314;22552;-26
2021/12/21 12:21:50;;;;;;;7.00;2.10;;;;;;;-0.49;66.24;100221.05;104308;1314;23125;-26
2021/12/21 12:24:18;;;;;;;9.60;1.30;;;;;;;-0.51;68.23;100216.96;103857;1313;24240;-30
2021/12/21 12:26:44;;;;;;;4.10;1.30;;;;;;;-0.41;67.35;100217.70;103816;1314;24253;-27
2021/12/21 12:29:10;;;;;;;3.00;1.00;;;;;;;-0.38;68.94;100221.73;103935;1308;22453;-27